createdAt,value
2022-10-01T00:02:08.057Z,11.13
2022-10-01T00:04:37.878Z,11.01
2022-10-01T00:07:09.364Z,10.94
2022-10-01T00:09:35.823Z,10.98
2022-10-01T00:12:03.321Z,11.02
2022-10-01T00:14:29.733Z,10.99
2022-10-01T00:16:56.244Z,11.00
2022-10-01T00:19:22.900Z,10.92
2022-10-01T00:21:49.331Z,10.93
2022-10-01T00:24:15.770Z,10.97
2022-10-01T00:26:42.340Z,10.90
2022-10-01T00:29:13.627Z,10.97
2022-10-01T00:31:40.709Z,10.92
2022-10-01T00:34:07.331Z,10.95
2022-10-01T00:36:34.729Z,10.92
2022-10-01T00:39:02.036Z,10.94
2022-10-01T00:41:30.942Z,10.95
2022-10-01T00:44:03.064Z,10.99
2022-10-01T00:46:42.749Z,10.95
2022-10-01T00:49:14.039Z,10.93
2022-10-01T00:51:45.068Z,10.83
2022-10-01T00:54:15.917Z,10.92
2022-10-01T00:56:44.105Z,10.88
2022-10-01T00:59:12.123Z,10.79
2022-10-01T01:01:39.414Z,10.86
2022-10-01T01:04:16.414Z,10.90
2022-10-01T01:06:53.724Z,10.92
2022-10-01T01:09:21.064Z,10.86
2022-10-01T01:12:06.290Z,10.77
2022-10-01T01:14:58.649Z,10.69
2022-10-01T01:17:43.477Z,10.68
2022-10-01T01:20:12.753Z,10.64
2022-10-01T01:22:48.350Z,10.79
2022-10-01T01:25:14.835Z,10.72
2022-10-01T01:27:50.685Z,10.71
2022-10-01T01:30:18.600Z,10.79
2022-10-01T01:32:54.507Z,10.75
2022-10-01T01:35:33.713Z,10.74
2022-10-01T01:38:09.265Z,10.78
2022-10-01T01:40:39.446Z,10.79
2022-10-01T01:43:10.386Z,10.85
2022-10-01T01:45:40.003Z,10.78
2022-10-01T01:48:09.833Z,10.87
2022-10-01T01:50:42.329Z,10.84
2022-10-01T01:53:08.950Z,10.79
2022-10-01T01:55:37.095Z,10.86
2022-10-01T01:58:03.526Z,10.88
2022-10-01T02:00:30.013Z,10.89
2022-10-01T02:02:57.605Z,10.89
2022-10-01T02:05:29.492Z,10.87
2022-10-01T02:08:21.959Z,10.83
2022-10-01T02:10:57.735Z,10.82
2022-10-01T02:14:00.090Z,10.79
2022-10-01T02:16:42.137Z,10.76
2022-10-01T02:19:36.295Z,10.77
2022-10-01T02:22:12.871Z,10.86
2022-10-01T02:24:58.650Z,10.89
2022-10-01T02:27:46.653Z,10.90
2022-10-01T02:30:13.468Z,10.84
2022-10-01T02:32:44.258Z,10.88
2022-10-01T02:35:14.329Z,10.91
2022-10-01T02:37:44.254Z,10.95
2022-10-01T02:40:16.020Z,10.90
2022-10-01T02:42:48.616Z,10.92
2022-10-01T02:45:22.759Z,10.92
2022-10-01T02:47:54.254Z,10.86
2022-10-01T02:50:22.917Z,10.92
2022-10-01T02:52:54.521Z,10.92
2022-10-01T02:55:28.805Z,10.92
2022-10-01T02:57:56.391Z,10.91
2022-10-01T03:00:23.621Z,10.97
2022-10-01T03:02:50.246Z,10.87
2022-10-01T03:05:17.398Z,10.92
2022-10-01T03:07:43.993Z,10.90
2022-10-01T03:10:11.708Z,10.91
2022-10-01T03:12:41.005Z,10.94
2022-10-01T03:15:07.753Z,10.96
2022-10-01T03:17:36.052Z,10.96
2022-10-01T03:20:02.697Z,10.99
2022-10-01T03:22:29.068Z,10.95
2022-10-01T03:24:55.425Z,10.97
2022-10-01T03:27:22.445Z,10.95
2022-10-01T03:29:49.188Z,10.95
2022-10-01T03:32:15.841Z,11.02
2022-10-01T03:34:42.583Z,11.04
2022-10-01T03:37:09.170Z,11.07
2022-10-01T03:39:36.033Z,11.09
2022-10-01T03:42:04.030Z,11.08
2022-10-01T03:44:30.400Z,11.14
2022-10-01T03:46:56.898Z,11.15
2022-10-01T03:49:23.672Z,11.16
2022-10-01T03:51:50.234Z,11.18
2022-10-01T03:54:17.913Z,11.23
2022-10-01T03:56:44.303Z,11.22
2022-10-01T03:59:11.160Z,11.25
2022-10-01T04:01:38.971Z,11.29
2022-10-01T04:04:06.374Z,11.28
2022-10-01T04:06:32.847Z,11.35
2022-10-01T04:08:59.257Z,11.38
2022-10-01T04:11:25.914Z,11.37
2022-10-01T04:13:52.509Z,11.40
2022-10-01T04:16:19.089Z,11.47
2022-10-01T04:18:45.586Z,11.39
2022-10-01T04:21:12.802Z,11.47
2022-10-01T04:23:39.248Z,11.45
2022-10-01T04:26:05.730Z,11.53
2022-10-01T04:28:32.297Z,11.55
2022-10-01T04:31:17.490Z,11.56
2022-10-01T04:33:44.402Z,11.54
2022-10-01T04:36:11.127Z,11.60
2022-10-01T04:38:38.066Z,11.62
2022-10-01T04:41:04.459Z,11.56
2022-10-01T04:43:30.998Z,11.62
2022-10-01T04:45:57.350Z,11.69
2022-10-01T04:48:24.238Z,11.70
2022-10-01T04:50:50.634Z,11.74
2022-10-01T04:53:17.017Z,11.76
2022-10-01T04:55:43.712Z,11.77
2022-10-01T04:58:10.253Z,11.80
2022-10-01T05:00:36.860Z,11.82
2022-10-01T05:03:03.395Z,11.81
2022-10-01T05:05:32.900Z,11.86
2022-10-01T05:07:59.314Z,11.82
2022-10-01T05:10:26.370Z,11.78
2022-10-01T05:12:52.870Z,11.81
2022-10-01T05:15:19.468Z,11.80
2022-10-01T05:17:46.632Z,11.88
2022-10-01T05:20:22.064Z,11.89
2022-10-01T05:22:49.478Z,11.93
2022-10-01T05:25:17.133Z,11.93
2022-10-01T05:27:44.021Z,11.96
2022-10-01T05:30:12.502Z,11.96
2022-10-01T05:32:39.185Z,11.95
2022-10-01T05:35:07.117Z,11.99
2022-10-01T05:37:34.092Z,12.01
2022-10-01T05:40:00.935Z,12.03
2022-10-01T05:42:27.342Z,12.03
2022-10-01T05:44:53.756Z,12.01
2022-10-01T05:47:20.920Z,12.02
2022-10-01T05:49:47.303Z,12.04
2022-10-01T05:52:15.627Z,12.06
2022-10-01T05:54:42.164Z,12.09
2022-10-01T05:57:08.605Z,12.08
2022-10-01T05:59:35.269Z,12.13
2022-10-01T06:02:02.459Z,12.10
2022-10-01T06:04:28.896Z,12.16
2022-10-01T06:06:56.169Z,12.15
2022-10-01T06:09:22.586Z,12.17
2022-10-01T06:11:49.465Z,12.20
2022-10-01T06:14:16.585Z,12.21
2022-10-01T06:16:43.170Z,12.23
2022-10-01T06:19:09.684Z,12.29
2022-10-01T06:21:36.358Z,12.35
2022-10-01T06:24:03.249Z,12.29
2022-10-01T06:26:29.624Z,12.26
2022-10-01T06:28:56.624Z,12.32
2022-10-01T06:31:23.407Z,12.35
2022-10-01T06:33:49.940Z,12.46
2022-10-01T06:36:16.464Z,12.56
2022-10-01T06:38:43.302Z,12.52
2022-10-01T06:41:10.007Z,12.52
2022-10-01T06:43:36.381Z,12.58
2022-10-01T06:46:05.048Z,12.57
2022-10-01T06:48:32.487Z,12.59
2022-10-01T06:50:59.534Z,12.61
2022-10-01T06:53:27.881Z,12.66
2022-10-01T06:55:54.653Z,12.76
2022-10-01T06:58:23.515Z,12.77
2022-10-01T07:00:50.914Z,12.68
2022-10-01T07:03:20.918Z,12.77
2022-10-01T07:05:48.195Z,12.81
2022-10-01T07:08:14.678Z,12.83
2022-10-01T07:10:41.729Z,12.85
2022-10-01T07:13:12.410Z,12.92
2022-10-01T07:15:39.262Z,12.97
2022-10-01T07:18:06.720Z,12.94
2022-10-01T07:20:35.909Z,13.00
2022-10-01T07:23:02.375Z,13.16
2022-10-01T07:25:29.287Z,13.29
2022-10-01T07:28:02.043Z,13.24
2022-10-01T07:30:29.386Z,13.31
2022-10-01T07:32:55.816Z,13.37
2022-10-01T07:35:22.569Z,13.61
2022-10-01T07:37:50.483Z,13.71
2022-10-01T07:40:18.196Z,13.42
2022-10-01T07:42:56.291Z,13.67
2022-10-01T07:45:24.119Z,13.90
2022-10-01T07:47:59.510Z,14.17
2022-10-01T07:50:27.793Z,14.22
2022-10-01T07:52:56.181Z,14.08
2022-10-01T07:55:26.443Z,13.95
2022-10-01T07:57:55.041Z,13.72
2022-10-01T08:00:22.704Z,13.56
2022-10-01T08:02:54.251Z,13.58
2022-10-01T08:05:23.534Z,13.63
2022-10-01T08:07:50.683Z,13.58
2022-10-01T08:10:19.401Z,13.59
2022-10-01T08:12:46.628Z,13.48
2022-10-01T08:15:16.740Z,13.39
2022-10-01T08:17:44.309Z,13.35
2022-10-01T08:20:13.765Z,13.41
2022-10-01T08:22:42.414Z,13.43
2022-10-01T08:25:10.068Z,13.43
2022-10-01T08:27:36.726Z,13.65
2022-10-01T08:30:03.742Z,14.68
2022-10-01T08:32:31.154Z,15.45
2022-10-01T08:34:58.971Z,15.99
2022-10-01T08:37:27.161Z,16.24
2022-10-01T08:39:54.650Z,15.74
2022-10-01T08:42:34.283Z,14.80
2022-10-01T08:45:06.523Z,14.71
2022-10-01T08:47:41.170Z,14.75
2022-10-01T08:50:28.677Z,14.74
2022-10-01T08:53:02.528Z,14.70
2022-10-01T08:55:36.321Z,15.01
2022-10-01T08:58:06.536Z,15.14
2022-10-01T09:00:41.877Z,15.53
2022-10-01T09:03:12.424Z,15.14
2022-10-01T09:06:08.866Z,15.22
2022-10-01T09:08:44.242Z,15.24
2022-10-01T09:11:33.694Z,14.72
2022-10-01T09:14:21.595Z,14.49
2022-10-01T09:17:08.438Z,14.53
2022-10-01T09:20:01.482Z,15.12
2022-10-01T09:22:33.896Z,16.09
2022-10-01T09:25:09.776Z,15.60
2022-10-01T09:27:38.301Z,15.32
2022-10-01T09:30:11.475Z,14.97
2022-10-01T09:32:54.824Z,14.91
2022-10-01T09:35:54.673Z,16.40
2022-10-01T09:38:28.300Z,14.97
2022-10-01T09:40:56.769Z,14.66
2022-10-01T09:43:34.912Z,14.79
2022-10-01T09:46:06.759Z,16.67
2022-10-01T09:48:53.590Z,17.99
2022-10-01T09:51:27.364Z,19.46
2022-10-01T09:54:12.959Z,19.61
2022-10-01T09:56:44.258Z,18.22
2022-10-01T09:59:22.498Z,18.47
2022-10-01T10:01:53.289Z,19.24
2022-10-01T10:04:23.201Z,20.15
2022-10-01T10:06:51.553Z,18.13
2022-10-01T10:09:21.902Z,18.61
2022-10-01T10:11:49.100Z,18.91
2022-10-01T10:14:29.237Z,17.83
2022-10-01T10:16:56.627Z,19.76
2022-10-01T10:19:26.495Z,18.57
2022-10-01T10:21:57.375Z,19.46
2022-10-01T10:24:34.287Z,18.99
2022-10-01T10:27:02.605Z,18.37
2022-10-01T10:29:31.615Z,19.62
2022-10-01T10:31:59.917Z,19.13
2022-10-01T10:34:34.039Z,17.72
2022-10-01T10:37:07.607Z,18.31
2022-10-01T10:39:37.841Z,19.58
2022-10-01T10:42:05.636Z,20.22
2022-10-01T10:44:38.855Z,21.42
2022-10-01T10:47:10.985Z,20.54
2022-10-01T10:49:49.605Z,21.67
2022-10-01T10:52:24.379Z,22.03
2022-10-01T10:54:53.505Z,20.94
2022-10-01T10:57:23.124Z,18.69
2022-10-01T10:59:59.803Z,19.57
2022-10-01T11:02:31.873Z,20.06
2022-10-01T11:05:11.923Z,21.61
2022-10-01T11:07:38.421Z,22.27
2022-10-01T11:10:32.011Z,22.47
2022-10-01T11:12:58.352Z,22.39
2022-10-01T11:15:46.058Z,22.37
2022-10-01T11:18:40.213Z,21.72
2022-10-01T11:21:42.140Z,21.61
2022-10-01T11:24:32.931Z,22.06
2022-10-01T11:27:10.337Z,20.36
2022-10-01T11:30:07.900Z,19.55
2022-10-01T11:32:55.934Z,18.61
2022-10-01T11:35:50.105Z,18.90
2022-10-01T11:38:28.571Z,18.63
2022-10-01T11:41:03.831Z,19.46
2022-10-01T11:43:44.466Z,18.38
2022-10-01T11:46:25.515Z,20.56
2022-10-01T11:49:27.187Z,19.25
2022-10-01T11:52:11.392Z,19.71
2022-10-01T11:54:46.642Z,20.16
2022-10-01T11:57:34.142Z,21.64
2022-10-01T12:00:07.321Z,20.96
2022-10-01T12:02:48.445Z,18.43
2022-10-01T12:05:18.831Z,19.54
2022-10-01T12:08:08.963Z,19.48
2022-10-01T12:10:44.725Z,19.38
2022-10-01T12:13:33.982Z,20.23
2022-10-01T12:16:28.036Z,20.01
2022-10-01T12:19:00.877Z,21.33
2022-10-01T12:21:34.593Z,20.73
2022-10-01T12:24:06.012Z,18.88
2022-10-01T12:26:52.493Z,18.32
2022-10-01T12:29:23.923Z,17.91
2022-10-01T12:32:03.365Z,18.00
2022-10-01T12:34:54.636Z,17.76
2022-10-01T12:37:27.209Z,17.79
2022-10-01T12:40:10.210Z,17.39
2022-10-01T12:42:39.493Z,17.56
2022-10-01T12:45:20.340Z,17.64
2022-10-01T12:48:18.251Z,18.03
2022-10-01T12:50:57.489Z,19.89
2022-10-01T12:53:39.185Z,20.73
2022-10-01T12:56:15.820Z,20.67
2022-10-01T12:59:08.134Z,20.15
2022-10-01T13:01:58.952Z,20.92
2022-10-01T13:04:38.381Z,21.34
2022-10-01T13:07:38.167Z,19.81
2022-10-01T13:10:14.457Z,18.99
2022-10-01T13:12:43.645Z,18.98
2022-10-01T13:15:16.273Z,18.42
2022-10-01T13:17:52.537Z,19.32
2022-10-01T13:20:31.278Z,20.67
2022-10-01T13:23:12.691Z,20.33
2022-10-01T13:26:02.202Z,20.24
2022-10-01T13:28:40.723Z,20.62
2022-10-01T13:31:14.723Z,21.03
2022-10-01T13:33:41.780Z,20.93
2022-10-01T13:36:10.585Z,21.25
2022-10-01T13:38:39.991Z,20.25
2022-10-01T13:41:32.515Z,20.84
2022-10-01T13:44:18.471Z,20.35
2022-10-01T13:46:53.463Z,20.60
2022-10-01T13:49:26.422Z,20.80
2022-10-01T13:51:53.778Z,19.73
2022-10-01T13:54:46.543Z,19.05
2022-10-01T13:57:34.901Z,19.83
2022-10-01T14:00:16.411Z,19.99
2022-10-01T14:02:57.258Z,20.07
2022-10-01T14:05:39.917Z,19.83
2022-10-01T14:08:33.154Z,19.82
2022-10-01T14:11:40.626Z,19.48
2022-10-01T14:14:39.126Z,19.71
2022-10-01T14:17:08.105Z,18.96
2022-10-01T14:19:35.047Z,19.44
2022-10-01T14:22:17.515Z,19.49
2022-10-01T14:25:02.679Z,19.20
2022-10-01T14:27:42.808Z,19.19
2022-10-01T14:30:48.991Z,18.85
2022-10-01T14:33:30.675Z,18.30
2022-10-01T14:36:16.422Z,18.17
2022-10-01T14:38:42.941Z,18.28
2022-10-01T14:41:19.915Z,18.21
2022-10-01T14:43:46.848Z,17.92
2022-10-01T14:46:16.759Z,17.81
2022-10-01T14:48:43.702Z,17.93
2022-10-01T14:51:31.078Z,17.81
2022-10-01T14:54:00.179Z,17.26
2022-10-01T14:56:28.646Z,17.43
2022-10-01T14:59:02.850Z,17.50
2022-10-01T15:01:29.395Z,17.51
2022-10-01T15:03:55.869Z,17.48
2022-10-01T15:06:30.314Z,17.08
2022-10-01T15:09:12.384Z,17.10
2022-10-01T15:11:44.267Z,16.97
2022-10-01T15:14:16.849Z,17.02
2022-10-01T15:16:43.392Z,17.00
2022-10-01T15:19:15.625Z,16.85
2022-10-01T15:21:41.937Z,17.03
2022-10-01T15:24:20.435Z,16.78
2022-10-01T15:26:49.234Z,16.74
2022-10-01T15:29:16.933Z,16.79
2022-10-01T15:31:49.447Z,16.67
2022-10-01T15:34:19.090Z,16.58
2022-10-01T15:36:48.365Z,16.54
2022-10-01T15:39:41.325Z,16.40
2022-10-01T15:42:20.438Z,16.42
2022-10-01T15:44:49.226Z,16.42
2022-10-01T15:47:33.913Z,16.61
2022-10-01T15:50:01.335Z,16.50
2022-10-01T15:52:48.626Z,16.52
2022-10-01T15:55:17.253Z,16.32
2022-10-01T15:57:44.802Z,16.19
2022-10-01T16:00:26.440Z,16.06
2022-10-01T16:02:54.656Z,16.11
2022-10-01T16:05:25.467Z,16.05
2022-10-01T16:07:58.489Z,16.04
2022-10-01T16:10:42.389Z,16.04
2022-10-01T16:13:33.988Z,15.93
2022-10-01T16:16:12.806Z,15.90
2022-10-01T16:18:40.414Z,15.93
2022-10-01T16:21:09.790Z,16.01
2022-10-01T16:23:39.560Z,15.86
2022-10-01T16:26:29.766Z,15.77
2022-10-01T16:28:58.563Z,15.93
2022-10-01T16:31:25.846Z,15.99
2022-10-01T16:33:52.793Z,16.03
2022-10-01T16:36:21.405Z,15.90
2022-10-01T16:38:48.218Z,15.86
2022-10-01T16:41:22.299Z,15.77
2022-10-01T16:43:49.930Z,15.79
2022-10-01T16:46:16.321Z,15.79
2022-10-01T16:48:42.803Z,15.74
2022-10-01T16:51:09.259Z,15.63
2022-10-01T16:53:35.622Z,15.56
2022-10-01T16:56:01.997Z,15.62
2022-10-01T16:58:28.335Z,15.58
2022-10-01T17:00:54.823Z,15.56
2022-10-01T17:03:24.970Z,15.56
2022-10-01T17:05:51.493Z,15.54
2022-10-01T17:08:17.937Z,15.54
2022-10-01T17:11:01.725Z,15.49
2022-10-01T17:13:31.332Z,15.60
2022-10-01T17:15:57.747Z,15.54
2022-10-01T17:18:24.300Z,15.43
2022-10-01T17:20:50.761Z,15.53
2022-10-01T17:23:19.428Z,15.46
2022-10-01T17:25:46.583Z,15.41
2022-10-01T17:28:20.213Z,15.28
2022-10-01T17:30:48.101Z,15.34
2022-10-01T17:33:19.135Z,15.28
2022-10-01T17:35:52.094Z,15.25
2022-10-01T17:38:19.394Z,15.21
2022-10-01T17:40:46.159Z,15.14
2022-10-01T17:43:14.905Z,15.15
2022-10-01T17:45:42.051Z,15.15
2022-10-01T17:48:09.359Z,15.08
2022-10-01T17:50:43.885Z,15.01
2022-10-01T17:53:11.928Z,14.92
2022-10-01T17:55:42.730Z,14.87
2022-10-01T17:58:10.249Z,14.80
2022-10-01T18:00:36.998Z,14.78
2022-10-01T18:03:03.817Z,14.70
2022-10-01T18:05:30.204Z,14.71
2022-10-01T18:07:56.581Z,14.57
2022-10-01T18:10:22.946Z,14.57
2022-10-01T18:12:49.354Z,14.56
2022-10-01T18:15:18.525Z,14.52
2022-10-01T18:17:51.438Z,14.49
2022-10-01T18:20:20.290Z,14.47
2022-10-01T18:22:46.997Z,14.51
2022-10-01T18:25:15.930Z,14.31
2022-10-01T18:27:43.511Z,14.21
2022-10-01T18:30:10.413Z,14.35
2022-10-01T18:32:41.098Z,14.35
2022-10-01T18:35:19.074Z,14.21
2022-10-01T18:37:54.539Z,14.07
2022-10-01T18:40:21.008Z,14.18
2022-10-01T18:42:54.227Z,14.20
2022-10-01T18:45:41.344Z,14.20
2022-10-01T18:48:19.526Z,14.10
2022-10-01T18:51:06.198Z,14.02
2022-10-01T18:53:40.509Z,13.93
2022-10-01T18:56:25.927Z,14.02
2022-10-01T18:59:10.764Z,14.03
2022-10-01T19:02:13.703Z,13.90
2022-10-01T19:04:50.184Z,13.86
2022-10-01T19:07:34.987Z,13.85
2022-10-01T19:10:13.240Z,13.92
2022-10-01T19:12:50.493Z,13.76
2022-10-01T19:15:28.830Z,13.77
2022-10-01T19:18:11.624Z,13.78
2022-10-01T19:20:48.922Z,13.81
2022-10-01T19:23:46.692Z,13.71
2022-10-01T19:26:41.255Z,13.71
2022-10-01T19:29:16.362Z,13.69
2022-10-01T19:31:59.314Z,13.68
2022-10-01T19:34:47.434Z,13.61
2022-10-01T19:37:31.738Z,13.63
2022-10-01T19:40:04.945Z,13.68
2022-10-01T19:42:36.943Z,13.67
2022-10-01T19:45:16.199Z,13.48
2022-10-01T19:48:02.247Z,13.50
2022-10-01T19:50:34.216Z,13.51
2022-10-01T19:53:02.876Z,13.48
2022-10-01T19:55:38.767Z,13.47
2022-10-01T19:58:18.474Z,13.43
2022-10-01T20:00:49.494Z,13.37
2022-10-01T20:03:33.114Z,13.38
2022-10-01T20:06:05.925Z,13.34
2022-10-01T20:08:49.388Z,13.31
2022-10-01T20:11:27.021Z,13.36
2022-10-01T20:14:03.440Z,13.43
2022-10-01T20:16:36.452Z,13.37
2022-10-01T20:19:24.441Z,13.39
2022-10-01T20:22:07.530Z,13.40
2022-10-01T20:24:49.142Z,13.40
2022-10-01T20:27:37.507Z,13.36
2022-10-01T20:30:20.326Z,13.25
2022-10-01T20:33:01.436Z,13.32
2022-10-01T20:35:41.383Z,13.30
2022-10-01T20:38:17.538Z,13.23
2022-10-01T20:40:49.706Z,13.20
2022-10-01T20:43:30.575Z,13.11
2022-10-01T20:45:59.653Z,13.23
2022-10-01T20:48:33.480Z,13.22
2022-10-01T20:51:06.572Z,13.18
2022-10-01T20:53:51.360Z,13.24
2022-10-01T20:56:28.289Z,13.31
2022-10-01T20:59:02.129Z,13.30
2022-10-01T21:01:32.687Z,13.24
2022-10-01T21:04:10.686Z,13.25
2022-10-01T21:06:42.114Z,13.23
2022-10-01T21:09:31.004Z,13.13
2022-10-01T21:12:06.919Z,13.19
2022-10-01T21:14:38.380Z,13.12
2022-10-01T21:17:26.568Z,13.13
2022-10-01T21:20:14.927Z,13.16
2022-10-01T21:22:51.356Z,13.09
2022-10-01T21:25:31.178Z,13.18
2022-10-01T21:28:15.343Z,13.10
2022-10-01T21:30:54.285Z,13.04
2022-10-01T21:33:33.145Z,13.10
2022-10-01T21:36:11.150Z,13.07
2022-10-01T21:38:51.470Z,13.05
2022-10-01T21:41:31.792Z,13.07
2022-10-01T21:44:10.865Z,13.06
2022-10-01T21:46:42.488Z,13.11
2022-10-01T21:49:36.142Z,13.10
2022-10-01T21:52:44.029Z,13.09
2022-10-01T21:55:44.129Z,13.08
2022-10-01T21:58:23.297Z,13.02
2022-10-01T22:01:08.133Z,13.10
2022-10-01T22:03:44.988Z,13.12
2022-10-01T22:06:28.899Z,13.08
2022-10-01T22:09:07.218Z,13.10
2022-10-01T22:11:39.214Z,13.09
2022-10-01T22:14:16.506Z,13.08
2022-10-01T22:16:51.247Z,13.07
2022-10-01T22:19:40.326Z,12.99
2022-10-01T22:22:12.829Z,13.01
2022-10-01T22:24:46.510Z,13.10
2022-10-01T22:27:27.821Z,13.07
2022-10-01T22:30:01.943Z,13.08
2022-10-01T22:32:35.062Z,13.17
2022-10-01T22:35:06.754Z,13.26
2022-10-01T22:37:54.467Z,13.27
2022-10-01T22:40:31.540Z,13.27
2022-10-01T22:43:06.577Z,13.32
2022-10-01T22:45:47.543Z,13.33
2022-10-01T22:48:38.647Z,13.36
2022-10-01T22:51:16.589Z,13.35
2022-10-01T22:53:53.786Z,13.42
2022-10-01T22:56:29.764Z,13.42
2022-10-01T22:59:22.667Z,13.50
2022-10-01T23:02:07.691Z,13.49
2022-10-01T23:05:04.443Z,13.46
2022-10-01T23:07:44.417Z,13.50
2022-10-01T23:10:23.416Z,13.49
2022-10-01T23:13:07.743Z,13.52
2022-10-01T23:15:41.409Z,13.42
2022-10-01T23:18:29.315Z,13.43
2022-10-01T23:21:29.402Z,13.41
2022-10-01T23:24:08.270Z,13.44
2022-10-01T23:26:46.741Z,13.37
2022-10-01T23:29:32.071Z,13.30
2022-10-01T23:32:16.142Z,13.27
2022-10-01T23:35:15.560Z,13.28
2022-10-01T23:38:04.143Z,13.18
2022-10-01T23:40:33.788Z,13.09
2022-10-01T23:43:16.244Z,13.13
2022-10-01T23:45:51.810Z,13.06
2022-10-01T23:48:24.275Z,13.02
2022-10-01T23:51:18.525Z,12.90
2022-10-01T23:53:51.977Z,12.97
2022-10-01T23:56:51.064Z,12.96
2022-10-01T23:59:37.279Z,12.83
